Terminal Aerodrome Forecast
Issued by NWS

Home | Current Version | Previous Version | Text Only | Print | Product List | Glossary On
Versions: 1 2 3 4 5 6 7 8 9 10 11 12
000
FTUS46 KSTO 312300
TAFRBL
TAF
KRBL 312330Z 0100/0124 16010KT P6SM FEW250
     FM010600 31006KT P6SM FEW250
     FM012100 16010KT P6SM FEW250=

USA.gov is the U.S. government's official web portal to all federal, state and local government web resources and services.